Time;durP1;ratioP1;P1;durP2;ratioP2;P2;SDS_P1;SDS_P2;PMS_P1;PMS_P2;Temp;Humidity;BMP_temperature;BMP_pressure;BME280_temperature;BME280_humidity;BME280_pressure;Samples;Min_cycle;Max_cycle;Signal;HPM_P1;HPM_P2
2022/11/06 00:03:57;;;;;;;14.70;7.15;;;;;;;0.90;96.17;101250.06;10497094;28;20120;-73
2022/11/06 00:08:59;;;;;;;12.80;7.47;;;;;;;0.93;96.73;101251.66;10497504;28;20472;-73
2022/11/06 00:14:01;;;;;;;9.75;6.88;;;;;;;0.82;97.17;101244.41;10496523;28;20500;-73
2022/11/06 00:19:02;;;;;;;13.90;8.27;;;;;;;0.83;97.02;101246.09;10496437;28;20051;-73
2022/11/06 00:24:05;;;;;;;10.77;6.05;;;;;;;0.26;97.33;101149.78;10496357;28;20436;-73
2022/11/06 00:29:06;;;;;;;13.65;7.30;;;;;;;0.83;96.47;101238.25;10496548;28;20051;-73
2022/11/06 00:34:09;;;;;;;11.80;5.60;;;;;;;0.62;96.59;101208.88;10497310;28;20070;-76
2022/11/06 00:39:10;;;;;;;16.20;9.13;;;;;;;0.82;96.20;101219.09;10514732;28;20104;-73
2022/11/06 00:44:11;;;;;;;16.02;9.43;;;;;;;0.95;96.71;101237.56;10538137;28;20040;-73
2022/11/06 00:49:13;;;;;;;17.85;8.80;;;;;;;1.04;97.00;101236.22;10521927;28;20470;-73
2022/11/06 00:54:14;;;;;;;19.48;8.98;;;;;;;0.89;97.19;101211.75;10493148;28;20044;-73
2022/11/06 00:59:15;;;;;;;17.52;8.60;;;;;;;0.72;97.01;101189.16;10496333;28;20041;-73
2022/11/06 01:04:18;;;;;;;12.48;7.75;;;;;;;0.66;96.43;101168.56;10495110;28;20098;-73
2022/11/06 01:09:23;;;;;;;15.43;8.27;;;;;;;1.07;96.61;101217.72;10494177;28;20042;-73
2022/11/06 01:14:24;;;;;;;;;;;;;;;1.42;97.72;101231.47;10513661;28;20055;-73
2022/11/06 01:19:25;;;;;;;16.85;8.85;;;;;;;1.44;96.49;101231.38;10517506;28;19973;-73
2022/11/06 01:24:27;;;;;;;15.50;10.02;;;;;;;1.36;97.39;101213.47;10492262;28;20040;-73
2022/11/06 01:29:28;;;;;;;18.70;10.90;;;;;;;1.57;97.28;101234.97;10509300;28;20055;-73
2022/11/06 01:34:29;;;;;;;17.95;9.52;;;;;;;1.71;97.29;101248.13;10536536;28;20530;-73
2022/11/06 01:39:30;;;;;;;14.55;9.48;;;;;;;1.85;97.28;101255.16;10536302;28;20056;-73
2022/11/06 01:44:40;;;;;;;17.38;10.77;;;;;;;1.52;97.61;101195.09;10535698;28;20545;-73
2022/11/06 01:49:40;;;;;;;16.98;11.30;;;;;;;1.95;97.93;101266.81;10499991;28;20049;-73
2022/11/06 01:54:46;;;;;;;17.52;10.50;;;;;;;2.07;98.91;101282.75;10496160;28;20135;-73
2022/11/06 01:59:51;;;;;;;17.70;8.85;;;;;;;2.06;98.68;101274.03;10550543;28;20047;-73
2022/11/06 02:04:51;;;;;;;13.38;7.82;;;;;;;2.17;98.42;101274.25;10577512;28;20611;-73
2022/11/06 02:09:52;;;;;;;13.70;8.15;;;;;;;2.05;99.00;101256.63;10577918;28;20098;-73
2022/11/06 02:15:00;;;;;;;12.07;8.18;;;;;;;2.29;99.33;101296.25;10579049;28;20040;-74
2022/11/06 02:20:31;;;;;;;14.68;9.27;;;;;;;2.34;100.00;101290.75;10585600;28;20410;-74
2022/11/06 02:25:47;;;;;;;10.52;7.78;;;;;;;2.45;98.43;101301.41;10585208;28;20039;-74
2022/11/06 02:30:50;;;;;;;13.10;8.80;;;;;;;2.51;98.82;101296.69;10584983;28;20480;-74
2022/11/06 02:36:15;;;;;;;15.00;9.95;;;;;;;2.66;100.00;101297.53;10585291;28;20043;-74
2022/11/06 02:41:20;;;;;;;15.13;9.60;;;;;;;2.61;99.30;101286.47;10585457;28;20059;-74
2022/11/06 02:46:21;;;;;;;12.15;7.82;;;;;;;2.64;98.89;101294.13;10584250;28;20050;-73
2022/11/06 02:51:27;;;;;;;14.93;8.82;;;;;;;2.67;99.10;101296.56;10585579;28;20396;-74
2022/11/06 02:56:33;;;;;;;17.92;7.68;;;;;;;1.85;98.93;101166.09;10582479;28;20077;-74
2022/11/06 03:01:58;;;;;;;12.82;8.20;;;;;;;2.82;100.00;101301.81;10584867;28;20044;-74
2022/11/06 03:07:02;;;;;;;;;;;;;;;3.01;100.00;101302.34;10584426;28;20043;-74
2022/11/06 03:12:24;;;;;;;16.92;10.93;;;;;;;2.95;99.84;101302.75;10583281;28;19915;-74
2022/11/06 03:17:43;;;;;;;16.30;11.18;;;;;;;2.41;100.00;101226.50;10583537;27;20406;-74
2022/11/06 03:23:10;;;;;;;14.93;10.02;;;;;;;2.87;100.00;101320.75;10583409;28;20047;-74
2022/11/06 03:28:22;;;;;;;17.58;10.20;;;;;;;2.80;100.00;101324.69;10581554;28;20042;-74
2022/11/06 03:33:50;;;;;;;15.90;10.55;;;;;;;2.73;100.00;101326.84;10582447;28;20063;-74
2022/11/06 03:39:18;;;;;;;16.02;9.98;;;;;;;2.82;100.00;101338.56;10581645;28;20083;-74
2022/11/06 03:44:23;;;;;;;13.52;9.07;;;;;;;2.69;100.00;101334.06;10553660;28;20048;-73
2022/11/06 03:49:52;;;;;;;19.23;8.88;;;;;;;2.77;100.00;101362.44;10532284;28;20048;-74
2022/11/06 03:55:18;;;;;;;14.77;10.35;;;;;;;2.84;100.00;101361.16;10494632;28;20535;-74
2022/11/06 04:00:19;;;;;;;13.88;8.02;;;;;;;2.87;100.00;101354.84;10489894;28;20041;-74
2022/11/06 04:05:23;;;;;;;14.23;10.32;;;;;;;2.81;100.00;101356.06;10498060;28;20037;-73
2022/11/06 04:15:51;;;;;;;14.52;10.13;;;;;;;3.07;100.00;101372.84;10497527;28;20497;-74
2022/11/06 04:21:35;;;;;;;46.53;25.67;;;;;;;3.14;100.00;101378.56;10496963;28;20048;-74
2022/11/06 04:27:00;;;;;;;33.25;18.77;;;;;;;3.16;100.00;101381.94;10424628;28;20040;-76
2022/11/06 04:32:31;;;;;;;23.08;12.88;;;;;;;3.30;100.00;101391.63;10495173;28;20044;-73
2022/11/06 04:37:43;;;;;;;23.80;14.93;;;;;;;3.24;100.00;101371.81;10495437;28;20044;-74
2022/11/06 04:42:57;;;;;;;31.25;17.13;;;;;;;3.37;100.00;101388.50;10495739;28;20052;-74
2022/11/06 04:48:00;;;;;;;40.00;20.73;;;;;;;3.53;100.00;101401.53;10496144;28;20507;-74
2022/11/06 04:53:03;;;;;;;34.42;21.67;;;;;;;3.36;100.00;101355.28;10495674;28;20047;-74
2022/11/06 04:58:04;;;;;;;56.10;33.33;;;;;;;3.72;100.00;101416.97;10496055;28;20033;-74
2022/11/06 05:03:05;;;;;;;40.22;20.83;;;;;;;3.91;100.00;101421.88;10496031;28;20430;-74
2022/11/06 05:08:10;;;;;;;43.22;19.33;;;;;;;4.03;100.00;101423.72;10495287;28;20047;-74
2022/11/06 05:13:12;;;;;;;62.47;19.63;;;;;;;4.22;100.00;101430.41;10494314;28;20444;-74
2022/11/06 05:18:13;;;;;;;42.38;22.13;;;;;;;4.44;100.00;101435.94;10494039;28;20044;-74
2022/11/06 05:23:14;;;;;;;35.42;18.80;;;;;;;4.47;100.00;101441.00;10493644;28;20041;-75
2022/11/06 05:28:15;;;;;;;46.95;21.33;;;;;;;4.47;100.00;101441.00;10505928;28;20044;-74
2022/11/06 05:33:16;;;;;;;53.50;18.38;;;;;;;4.63;100.00;101463.66;10522521;28;20043;-74
2022/11/06 05:38:16;;;;;;;34.42;17.17;;;;;;;4.71;100.00;101464.00;10495816;28;20060;-74
2022/11/06 05:43:17;;;;;;;32.33;16.88;;;;;;;4.87;100.00;101469.91;10498657;28;20052;-72
2022/11/06 05:48:18;;;;;;;29.50;15.57;;;;;;;4.91;100.00;101471.41;10511740;28;20090;-73
2022/11/06 05:53:19;;;;;;;26.23;15.73;;;;;;;4.76;99.95;101464.56;10510774;28;20036;-72
2022/11/06 05:58:20;;;;;;;25.38;14.93;;;;;;;4.31;99.76;101388.56;10525741;28;20040;-72
2022/11/06 06:03:21;;;;;;;29.95;17.10;;;;;;;4.47;99.73;101413.84;10543912;28;20154;-72
2022/11/06 06:08:22;;;;;;;27.33;15.23;;;;;;;4.99;98.86;101484.88;10541391;28;20040;-71
2022/11/06 06:13:23;;;;;;;32.28;15.63;;;;;;;4.52;98.42;101403.88;10500479;28;20032;-71
2022/11/06 06:18:23;;;;;;;28.17;15.85;;;;;;;5.11;98.45;101492.91;10501878;28;20055;-71
2022/11/06 06:23:24;;;;;;;182.20;22.35;;;;;;;4.61;97.93;101405.03;10501268;28;20066;-72
2022/11/06 06:28:25;;;;;;;26.70;15.32;;;;;;;5.24;98.37;101489.34;10500790;28;20064;-72
2022/11/06 06:33:26;;;;;;;26.77;16.00;;;;;;;5.19;98.35;101475.63;10502701;28;20036;-72
2022/11/06 06:38:27;;;;;;;26.15;15.95;;;;;;;5.08;97.75;101457.06;10514791;28;20504;-72
2022/11/06 06:43:28;;;;;;;27.75;15.93;;;;;;;4.83;98.31;101436.84;10513307;28;20654;-72
2022/11/06 06:48:29;;;;;;;28.05;15.93;;;;;;;5.30;98.25;101503.88;10515497;28;20550;-72
2022/11/06 06:53:30;;;;;;;29.23;16.27;;;;;;;5.29;98.35;101507.44;10517418;28;20037;-72
2022/11/06 06:58:31;;;;;;;32.88;17.00;;;;;;;5.17;97.80;101505.66;10515729;28;20040;-72
2022/11/06 07:03:32;;;;;;;31.08;17.08;;;;;;;4.79;97.89;101440.66;10512847;28;20036;-72
2022/11/06 07:08:33;;;;;;;29.50;16.92;;;;;;;5.04;98.01;101495.97;10516952;28;20086;-72
2022/11/06 07:13:34;;;;;;;29.45;16.52;;;;;;;5.23;97.81;101510.50;10512432;28;20045;-72
2022/11/06 07:18:36;;;;;;;30.33;17.15;;;;;;;4.73;97.63;101406.84;10518316;28;20396;-72
2022/11/06 07:23:37;;;;;;;31.88;17.52;;;;;;;5.45;98.34;101510.72;10508242;28;20094;-71
2022/11/06 07:28:38;;;;;;;43.65;17.58;;;;;;;5.45;96.95;101507.25;10512525;28;20502;-73
2022/11/06 07:33:39;;;;;;;33.53;18.05;;;;;;;5.53;97.09;101526.00;10514930;28;20139;-73
2022/11/06 07:38:42;;;;;;;27.40;16.98;;;;;;;5.46;96.82;101515.03;10514548;28;20583;-72
2022/11/06 07:43:43;;;;;;;29.33;16.02;;;;;;;5.00;96.28;101407.59;10515437;28;20044;-73
2022/11/06 07:48:44;;;;;;;28.48;15.82;;;;;;;5.76;96.06;101529.69;10515285;28;20481;-73
2022/11/06 07:53:45;;;;;;;32.45;16.50;;;;;;;5.69;95.32;101500.28;10510716;28;20057;-73
2022/11/06 07:58:45;;;;;;;29.90;16.05;;;;;;;6.10;94.73;101540.50;10513728;28;20041;-73
2022/11/06 08:03:46;;;;;;;26.63;16.05;;;;;;;5.99;93.05;101517.53;10509261;28;20493;-73
2022/11/06 08:08:47;;;;;;;25.65;14.32;;;;;;;5.70;93.30;101453.66;10513130;28;20090;-73
2022/11/06 08:13:48;;;;;;;30.50;15.20;;;;;;;6.21;93.50;101516.00;10512766;28;20044;-73
2022/11/06 08:18:49;;;;;;;28.95;14.90;;;;;;;5.63;93.25;101434.78;10509967;28;20039;-70
2022/11/06 08:23:50;;;;;;;24.13;15.30;;;;;;;5.52;93.47;101426.81;10513553;28;20040;-71
2022/11/06 08:28:50;;;;;;;25.33;15.27;;;;;;;5.55;93.51;101460.00;10510873;28;20047;-70
2022/11/06 08:33:52;;;;;;;38.72;15.57;;;;;;;5.59;92.93;101477.28;10512784;28;20501;-72
2022/11/06 08:38:53;;;;;;;25.48;15.75;;;;;;;5.02;93.29;101379.34;10512593;28;20044;-72
2022/11/06 08:43:54;;;;;;;27.50;16.23;;;;;;;5.87;92.46;101510.47;10516046;28;20050;-73
2022/11/06 08:48:54;;;;;;;30.50;16.50;;;;;;;5.96;92.73;101522.19;10513572;28;20059;-72
2022/11/06 08:53:56;;;;;;;27.67;16.58;;;;;;;5.93;92.85;101528.53;10507209;28;20032;-71
2022/11/06 08:58:57;;;;;;;29.67;16.83;;;;;;;5.92;92.65;101535.56;10510320;28;20089;-71
2022/11/06 09:03:58;;;;;;;27.42;16.23;;;;;;;5.50;92.73;101465.59;10512035;28;20106;-73
2022/11/06 09:08:58;;;;;;;26.83;16.30;;;;;;;5.83;92.99;101538.00;10512423;28;20498;-72
2022/11/06 09:14:00;;;;;;;28.63;16.38;;;;;;;5.87;92.42;101528.94;10506585;28;20047;-72
2022/11/06 09:19:01;;;;;;;33.75;16.42;;;;;;;5.81;92.84;101503.84;10510148;28;20035;-72
2022/11/06 09:24:01;;;;;;;32.70;16.33;;;;;;;6.01;92.54;101514.78;10521908;28;20045;-73
2022/11/06 09:29:02;;;;;;;26.10;15.43;;;;;;;6.11;93.09;101523.72;10507383;28;20032;-72
2022/11/06 09:34:03;;;;;;;32.65;17.17;;;;;;;5.76;92.81;101424.22;10520726;28;20052;-72
2022/11/06 09:39:04;;;;;;;33.28;18.35;;;;;;;5.80;92.40;101409.84;10529749;28;20147;-73
2022/11/06 09:44:39;;;;;;;33.00;17.63;;;;;;;6.40;91.83;101500.47;10544026;28;20086;-72
2022/11/06 09:49:48;;;;;;;38.05;18.45;;;;;;;6.53;92.26;101524.22;10544830;28;20047;-73
2022/11/06 09:54:58;;;;;;;26.35;15.93;;;;;;;6.32;91.98;101503.69;10526937;28;20051;-72
2022/11/06 10:00:01;;;;;;;31.48;19.23;;;;;;;6.10;91.58;101464.84;10501850;28;20068;-73
2022/11/06 10:05:24;;;;;;;34.33;18.88;;;;;;;6.52;91.91;101522.50;10502280;28;20127;-72
2022/11/06 10:10:34;;;;;;;30.80;17.42;;;;;;;6.48;93.06;101510.50;10500753;28;20119;-73
2022/11/06 10:15:44;;;;;;;28.63;17.55;;;;;;;6.37;92.87;101504.22;10501524;28;20133;-72
2022/11/06 10:20:52;;;;;;;33.80;18.42;;;;;;;6.27;92.19;101499.72;10501553;28;20040;-72
2022/11/06 10:26:10;;;;;;;31.83;19.20;;;;;;;5.96;93.28;101485.28;10501873;28;20119;-72
2022/11/06 10:31:41;;;;;;;31.35;17.45;;;;;;;6.24;93.58;101495.50;10500514;28;20032;-72
2022/11/06 10:36:50;;;;;;;30.27;17.67;;;;;;;5.28;91.57;101355.59;10500365;28;20047;-71
2022/11/06 10:42:17;;;;;;;32.72;18.08;;;;;;;6.29;92.15;101506.56;10501065;28;20059;-72
2022/11/06 10:47:21;;;;;;;30.00;18.52;;;;;;;5.81;92.06;101444.97;10505836;28;20060;-73
2022/11/06 10:52:42;;;;;;;23.65;15.25;;;;;;;6.22;92.63;101515.88;10584084;28;20031;-73
2022/11/06 10:57:49;;;;;;;30.25;14.98;;;;;;;6.26;92.06;101505.94;10584632;28;20399;-77
2022/11/06 11:03:00;;;;;;;27.40;15.25;;;;;;;5.76;92.03;101423.38;10581726;28;20044;-71
2022/11/06 11:08:00;;;;;;;28.63;16.15;;;;;;;6.20;91.81;101524.88;10583052;28;20039;-71
2022/11/06 11:13:04;;;;;;;31.90;17.80;;;;;;;6.09;92.18;101508.00;10583824;27;20096;-71
2022/11/06 11:18:18;;;;;;;29.13;16.17;;;;;;;6.18;92.74;101522.31;10535044;28;20036;-72
2022/11/06 11:23:24;;;;;;;25.23;15.75;;;;;;;5.77;91.31;101440.88;10501008;28;20044;-71
2022/11/06 11:28:30;;;;;;;26.00;14.20;;;;;;;6.28;91.77;101528.63;10515215;28;20507;-71
2022/11/06 11:33:32;;;;;;;26.50;13.98;;;;;;;6.42;91.41;101534.69;10514498;28;20074;-72
2022/11/06 11:38:38;;;;;;;27.85;14.77;;;;;;;6.45;90.38;101529.19;10514904;28;20135;-72
2022/11/06 11:43:41;;;;;;;23.60;12.88;;;;;;;6.48;90.79;101535.09;10512695;28;20036;-72
2022/11/06 11:48:56;;;;;;;20.65;13.90;;;;;;;6.49;90.05;101505.13;10513275;28;20473;-72
2022/11/06 11:54:02;;;;;;;24.25;12.77;;;;;;;6.48;88.88;101531.63;10513813;28;20628;-71
2022/11/06 11:59:03;;;;;;;20.42;13.05;;;;;;;6.48;89.98;101537.72;10514692;28;20040;-72
2022/11/06 12:04:18;;;;;;;17.98;13.23;;;;;;;6.51;88.65;101541.94;10510238;28;20048;-71
2022/11/06 12:09:20;;;;;;;20.67;15.20;;;;;;;6.42;89.06;101534.69;10511488;28;20041;-72
2022/11/06 12:14:21;;;;;;;20.00;12.70;;;;;;;6.06;89.21;101468.66;10515114;28;20047;-72
2022/11/06 12:19:25;;;;;;;23.65;13.63;;;;;;;6.39;88.98;101541.88;10511422;28;20040;-72
2022/11/06 12:24:48;;;;;;;32.53;15.63;;;;;;;6.42;88.93;101537.34;10512675;28;20032;-72
2022/11/06 12:30:09;;;;;;;24.92;16.60;;;;;;;6.49;88.82;101554.41;10514297;28;20171;-72
2022/11/06 12:35:31;;;;;;;21.05;14.25;;;;;;;6.07;88.60;101475.63;10510731;28;20117;-72
2022/11/06 12:40:38;;;;;;;36.13;17.27;;;;;;;6.50;89.26;101550.84;10512716;28;20060;-72
2022/11/06 12:46:18;;;;;;;33.63;22.98;;;;;;;6.63;88.33;101562.16;10512993;28;20040;-72
2022/11/06 12:51:24;;;;;;;44.00;26.13;;;;;;;6.52;89.32;101583.22;10503830;28;20067;-72
2022/11/06 12:57:05;;;;;;;34.20;18.48;;;;;;;6.52;88.74;101570.88;10512677;28;20051;-72
2022/11/06 13:02:38;;;;;;;32.58;16.05;;;;;;;6.62;88.40;101584.25;10505242;28;20040;-73
2022/11/06 13:07:50;;;;;;;40.80;22.58;;;;;;;6.60;88.45;101588.78;10488232;28;20052;-73
2022/11/06 13:12:57;;;;;;;57.70;34.55;;;;;;;6.57;88.11;101602.22;10510113;28;20032;-73
2022/11/06 13:18:19;;;;;;;66.00;29.25;;;;;;;6.04;87.74;101509.28;10500913;28;20028;-73
2022/11/06 13:23:36;;;;;;;36.65;19.73;;;;;;;6.55;87.60;101593.56;10510132;28;20541;-72
2022/11/06 13:28:59;;;;;;;25.80;19.15;;;;;;;6.42;87.17;101584.84;10509588;28;20028;-72
2022/11/06 13:34:02;;;;;;;44.25;28.80;;;;;;;6.42;87.86;101603.31;10510126;28;20036;-73
2022/11/06 13:39:36;;;;;;;41.67;25.02;;;;;;;6.50;87.11;101614.19;10505261;28;20056;-72
2022/11/06 13:44:37;;;;;;;26.42;15.45;;;;;;;6.42;88.09;101613.88;10495612;28;20056;-72
2022/11/06 13:50:13;;;;;;;21.33;12.50;;;;;;;6.31;87.08;101607.59;10517959;28;20047;-72
2022/11/06 13:55:42;;;;;;;25.33;13.02;;;;;;;6.21;88.27;101613.63;10513497;28;20169;-72
2022/11/06 14:00:52;;;;;;;18.92;12.82;;;;;;;6.11;87.82;101627.47;10494497;28;20056;-73
2022/11/06 14:05:56;;;;;;;24.92;12.35;;;;;;;6.00;87.98;101624.72;10502355;28;20036;-72
2022/11/06 14:11:05;;;;;;;23.05;13.50;;;;;;;5.38;88.06;101533.16;10494645;28;20080;-72
2022/11/06 14:16:21;;;;;;;17.30;11.77;;;;;;;5.93;88.91;101634.03;10500467;28;20040;-72
2022/11/06 14:21:24;;;;;;;19.73;12.75;;;;;;;5.93;88.84;101644.56;10501907;28;20044;-72
2022/11/06 14:26:47;;;;;;;32.10;16.60;;;;;;;5.96;89.38;101638.25;10500830;28;20186;-72
2022/11/06 14:32:05;;;;;;;25.08;14.65;;;;;;;5.86;89.52;101637.97;10515603;28;20631;-72
2022/11/06 14:37:18;;;;;;;17.88;12.43;;;;;;;5.84;89.20;101640.75;10517564;28;20032;-72
2022/11/06 14:42:35;;;;;;;20.88;11.40;;;;;;;5.17;89.62;101550.44;10516390;28;20091;-71
2022/11/06 14:47:45;;;;;;;15.00;8.20;;;;;;;5.54;89.73;101648.94;10517602;28;20094;-71
2022/11/06 14:52:50;;;;;;;15.50;8.60;;;;;;;4.86;89.65;101578.81;10516020;28;20042;-70
2022/11/06 14:57:53;;;;;;;11.68;7.95;;;;;;;5.26;89.92;101653.44;10503724;28;20048;-71
2022/11/06 15:02:54;;;;;;;13.43;8.30;;;;;;;5.14;89.94;101653.38;10513204;28;20079;-70
2022/11/06 15:07:58;;;;;;;11.05;8.02;;;;;;;5.10;89.94;101647.47;10511701;28;20068;-70
2022/11/06 15:13:09;;;;;;;16.40;7.57;;;;;;;5.10;90.16;101662.44;10512430;28;20036;-70
2022/11/06 15:18:21;;;;;;;12.93;8.32;;;;;;;4.37;90.57;101566.22;10513559;28;20052;-70
2022/11/06 15:23:34;;;;;;;11.77;7.97;;;;;;;4.78;90.93;101654.81;10511062;28;20086;-70
2022/11/06 15:28:43;;;;;;;10.63;7.55;;;;;;;4.65;91.05;101649.50;10513398;28;20035;-70
2022/11/06 15:33:58;;;;;;;10.88;7.80;;;;;;;4.22;91.83;101598.72;10500345;28;20041;-70
2022/11/06 15:39:00;;;;;;;10.70;7.53;;;;;;;4.12;91.67;101615.09;10509797;28;20056;-70
2022/11/06 15:44:02;;;;;;;10.90;7.35;;;;;;;4.44;91.96;101693.81;10539771;28;20040;-69
2022/11/06 15:49:16;;;;;;;12.45;8.38;;;;;;;4.33;93.10;101690.97;10540225;28;20752;-70
2022/11/06 15:54:34;;;;;;;;;;;;;;;4.48;92.61;101705.81;10539484;28;20051;-70
2022/11/06 15:59:35;;;;;;;10.35;6.68;;;;;;;4.28;91.74;101709.69;10539141;28;19954;-70
2022/11/06 16:04:36;;;;;;;12.77;7.63;;;;;;;4.14;91.66;101706.22;10539254;28;20058;-69
2022/11/06 16:09:40;;;;;;;21.35;9.82;;;;;;;4.02;92.18;101711.25;10539010;28;20043;-69
2022/11/06 16:14:44;;;;;;;;;;;;;;;4.12;91.73;101709.75;10539862;28;20028;-69
2022/11/06 16:19:47;;;;;;;19.80;11.00;;;;;;;3.69;92.02;101685.22;10539249;28;20015;-69
2022/11/06 16:25:03;;;;;;;8.68;5.72;;;;;;;3.77;92.04;101705.75;10539127;28;20130;-69
2022/11/06 16:30:05;;;;;;;10.07;6.07;;;;;;;3.66;92.40;101706.41;10538798;28;20040;-69
2022/11/06 16:35:36;;;;;;;10.95;5.57;;;;;;;3.74;92.13;101725.22;10538274;28;20046;-69
2022/11/06 16:40:49;;;;;;;8.57;5.20;;;;;;;3.66;92.88;101719.56;10538364;28;20101;-69
2022/11/06 16:46:06;;;;;;;7.78;4.75;;;;;;;3.67;92.92;101731.75;10538759;28;20032;-69
2022/11/06 16:51:10;;;;;;;9.80;5.30;;;;;;;3.28;92.31;101648.22;10538235;28;20411;-69
2022/11/06 16:56:12;;;;;;;5.53;4.45;;;;;;;3.58;92.12;101713.88;10527686;28;20037;-69
2022/11/06 17:01:15;;;;;;;8.52;5.20;;;;;;;3.75;92.49;101733.94;10537311;28;20051;-69
2022/11/06 17:06:25;;;;;;;10.18;4.78;;;;;;;3.82;93.26;101732.63;10533100;28;20036;-69
2022/11/06 17:11:26;;;;;;;13.30;7.07;;;;;;;3.35;92.89;101645.16;10516016;28;20059;-69
2022/11/06 17:16:27;;;;;;;14.65;6.20;;;;;;;4.02;93.10;101737.56;10517105;28;20047;-69
2022/11/06 17:21:28;;;;;;;12.50;5.72;;;;;;;4.18;92.23;101734.00;10527021;28;20480;-70
2022/11/06 17:26:31;;;;;;;9.93;4.80;;;;;;;4.08;91.97;101731.09;10504247;28;20035;-69
2022/11/06 17:31:31;;;;;;;7.53;4.78;;;;;;;4.14;92.70;101732.50;10532878;28;20036;-69
2022/11/06 17:36:34;;;;;;;6.97;3.97;;;;;;;4.20;92.00;101740.88;10503870;28;20062;-69
2022/11/06 17:41:35;;;;;;;6.25;3.95;;;;;;;4.27;91.93;101743.97;10495594;28;20060;-69
2022/11/06 17:46:42;;;;;;;8.43;4.75;;;;;;;4.35;91.55;101736.47;10495792;28;20126;-69
2022/11/06 17:51:49;;;;;;;5.88;3.80;;;;;;;4.42;91.63;101742.19;10503767;28;20067;-69
2022/11/06 17:56:52;;;;;;;4.97;3.38;;;;;;;4.27;90.64;101728.19;10504886;28;20042;-69
2022/11/06 18:01:54;;;;;;;5.13;3.45;;;;;;;4.26;90.60;101729.13;10511939;28;20076;-69
2022/11/06 18:06:55;;;;;;;5.47;3.55;;;;;;;4.43;90.50;101759.66;10501872;28;20060;-69
2022/11/06 18:11:56;;;;;;;6.65;3.95;;;;;;;4.44;90.29;101743.78;10502488;28;20464;-69
2022/11/06 18:16:57;;;;;;;5.78;3.88;;;;;;;4.49;90.46;101749.63;10500837;28;20036;-69
2022/11/06 18:21:58;;;;;;;5.20;3.58;;;;;;;4.38;90.03;101743.34;10501792;28;20496;-69
2022/11/06 18:26:59;;;;;;;7.45;4.10;;;;;;;4.24;89.17;101723.13;10502361;28;20082;-69
2022/11/06 18:32:00;;;;;;;6.75;4.22;;;;;;;4.33;88.81;101751.50;10499474;28;20055;-69
2022/11/06 18:37:01;;;;;;;6.22;4.15;;;;;;;4.29;87.88;101771.03;10501383;28;20142;-69
2022/11/06 18:42:02;;;;;;;6.50;4.20;;;;;;;4.24;87.72;101759.94;10503553;28;20060;-70
2022/11/06 18:47:03;;;;;;;8.50;4.65;;;;;;;4.27;87.57;101752.69;10583391;27;20104;-69
2022/11/06 18:52:03;;;;;;;7.47;4.28;;;;;;;3.71;87.61;101657.06;10585601;28;20096;-69
2022/11/06 18:57:04;;;;;;;7.90;4.55;;;;;;;4.33;88.19;101757.59;10584368;28;20035;-69
2022/11/06 19:02:05;;;;;;;7.20;4.20;;;;;;;4.37;88.02;101757.41;10584457;28;20035;-69
2022/11/06 19:07:06;;;;;;;7.40;4.25;;;;;;;4.43;87.48;101747.38;10585125;28;20046;-69
2022/11/06 19:12:06;;;;;;;5.90;4.18;;;;;;;4.46;87.75;101744.56;10523230;28;20123;-69
2022/11/06 19:17:07;;;;;;;6.63;3.95;;;;;;;3.91;86.98;101669.00;10499676;28;20542;-69
2022/11/06 19:22:09;;;;;;;8.52;4.55;;;;;;;3.89;86.96;101668.25;10506061;28;20051;-70
2022/11/06 19:27:10;;;;;;;7.38;4.45;;;;;;;4.37;87.30;101757.41;10518932;28;20044;-71
2022/11/06 19:32:10;;;;;;;9.63;5.78;;;;;;;4.39;86.53;101756.38;10515379;28;20077;-70
2022/11/06 19:37:11;;;;;;;8.07;5.55;;;;;;;4.15;86.62;101718.41;10517478;28;20492;-69
2022/11/06 19:42:12;;;;;;;9.10;6.03;;;;;;;4.17;86.56;101740.22;10517646;28;20055;-70
2022/11/06 19:47:13;;;;;;;8.70;5.10;;;;;;;4.21;86.47;101750.44;10518912;28;20135;-69
2022/11/06 19:52:14;;;;;;;8.77;5.78;;;;;;;3.95;85.79;101709.09;10511921;28;20046;-70
2022/11/06 19:57:14;;;;;;;11.68;4.30;;;;;;;4.22;86.71;101743.38;10515987;28;20071;-69
2022/11/06 20:02:17;;;;;;;7.32;4.50;;;;;;;4.08;86.64;101724.03;10518816;28;20035;-69
2022/11/06 20:07:18;;;;;;;7.93;5.55;;;;;;;3.10;86.50;101572.19;10497398;28;20135;-70
2022/11/06 20:12:19;;;;;;;11.30;5.95;;;;;;;4.05;85.92;101731.28;10526007;28;20131;-69
2022/11/06 20:17:19;;;;;;;10.00;5.15;;;;;;;3.93;86.52;101709.19;10539312;28;20070;-69
2022/11/06 20:22:20;;;;;;;12.40;5.25;;;;;;;4.05;86.16;101718.13;10539204;28;20054;-69
2022/11/06 20:27:21;;;;;;;7.75;4.68;;;;;;;4.06;86.82;101710.13;10537032;28;20044;-70
2022/11/06 20:32:22;;;;;;;5.93;4.03;;;;;;;3.98;85.91;101661.56;10532236;28;20511;-69
2022/11/06 20:37:22;;;;;;;6.18;4.00;;;;;;;4.24;85.99;101699.44;10524122;28;20382;-69
2022/11/06 20:42:24;;;;;;;6.35;4.07;;;;;;;4.02;85.63;101657.84;10496961;28;20060;-69
2022/11/06 20:47:24;;;;;;;6.03;4.05;;;;;;;3.74;85.38;101604.31;10496664;28;20086;-69
2022/11/06 20:52:25;;;;;;;10.00;5.45;;;;;;;4.46;86.03;101702.47;10496723;28;20446;-69
2022/11/06 20:57:26;;;;;;;8.82;5.18;;;;;;;4.41;85.19;101701.03;10495505;28;20044;-69
2022/11/06 21:02:27;;;;;;;8.55;5.18;;;;;;;4.28;85.82;101690.44;10496086;28;20090;-69
2022/11/06 21:07:28;;;;;;;7.10;4.70;;;;;;;4.08;85.27;101676.72;10496518;28;20063;-69
2022/11/06 21:12:32;;;;;;;7.00;4.35;;;;;;;4.05;86.14;101676.06;10494357;28;20040;-69
2022/11/06 21:17:34;;;;;;;5.97;3.93;;;;;;;3.87;85.75;101660.44;10495710;28;20041;-69
2022/11/06 21:22:34;;;;;;;7.40;4.07;;;;;;;4.03;86.66;101693.69;10496813;28;20094;-69
2022/11/06 21:27:35;;;;;;;7.57;4.05;;;;;;;3.73;86.53;101652.53;10503888;28;20075;-69
2022/11/06 21:32:36;;;;;;;5.20;3.38;;;;;;;4.00;86.81;101709.66;10503410;28;20049;-69
2022/11/06 21:37:37;;;;;;;6.22;4.13;;;;;;;3.96;87.13;101693.22;10503815;28;20032;-69
2022/11/06 21:42:38;;;;;;;6.68;4.10;;;;;;;3.38;87.04;101602.94;10502932;28;20097;-69
2022/11/06 21:47:38;;;;;;;7.70;4.38;;;;;;;3.92;87.48;101686.47;10503439;28;20044;-69
2022/11/06 21:57:58;;;;;;;7.38;4.68;;;;;;;3.85;87.97;101677.25;10502369;28;20089;-69
2022/11/06 22:02:59;;;;;;;8.93;4.75;;;;;;;3.81;88.54;101673.13;10502688;28;20040;-69
2022/11/06 22:08:00;;;;;;;8.93;4.95;;;;;;;3.91;89.47;101687.41;10503732;28;20369;-69
2022/11/06 22:13:01;;;;;;;8.82;5.40;;;;;;;3.87;89.24;101696.41;10502272;28;20113;-69
2022/11/06 22:18:02;;;;;;;6.80;4.78;;;;;;;3.84;89.85;101686.09;10501482;28;20072;-69
2022/11/06 22:23:02;;;;;;;11.13;4.88;;;;;;;3.94;89.74;101700.34;10500964;28;20131;-69
2022/11/06 22:28:03;;;;;;;8.63;4.57;;;;;;;3.98;89.88;101691.38;10502517;28;20044;-69
2022/11/06 22:33:04;;;;;;;8.23;5.18;;;;;;;3.14;89.84;101555.34;10501273;28;20052;-69
2022/11/06 22:38:08;;;;;;;7.18;4.75;;;;;;;3.99;90.25;101698.31;10506931;28;20059;-69
2022/11/06 22:43:09;;;;;;;9.02;5.55;;;;;;;3.97;90.72;101699.31;10505083;28;20067;-69
2022/11/06 22:48:10;;;;;;;8.93;5.53;;;;;;;4.01;90.72;101716.59;10501145;28;20051;-69
2022/11/06 22:53:11;;;;;;;12.82;5.35;;;;;;;3.95;91.65;101696.81;10500426;28;20412;-69
2022/11/06 22:58:12;;;;;;;7.93;5.30;;;;;;;3.96;91.80;101701.13;10500131;28;20494;-69
2022/11/06 23:03:12;;;;;;;9.75;6.10;;;;;;;3.90;92.30;101709.38;10500098;28;20044;-69
2022/11/06 23:08:14;;;;;;;14.32;6.25;;;;;;;3.86;92.90;101711.34;10499737;28;20123;-69
2022/11/06 23:13:15;;;;;;;14.80;6.13;;;;;;;3.75;93.24;101689.25;10499126;28;20500;-69
2022/11/06 23:18:16;;;;;;;8.95;6.18;;;;;;;3.64;93.32;101682.84;10498208;28;20032;-70
2022/11/06 23:23:17;;;;;;;15.40;6.68;;;;;;;3.68;93.80;101691.41;10507936;28;20044;-69
2022/11/06 23:28:18;;;;;;;10.88;7.13;;;;;;;3.75;94.00;101712.91;10501737;28;20032;-69
2022/11/06 23:33:18;;;;;;;8.95;6.35;;;;;;;3.57;94.59;101683.31;10499285;28;20562;-69